Friday, October 19, 2018, 3:53 AM EDT
Back to Local

KJHW, Jamestown, Chautauqua County/jamestown Airport

Location: Jamestown, NY, United States Lat: 42.15
Local Time: 3:53 AM EDT ( 7:53 GMT) Lon: -79.267
Time Zone: US/Eastern Elev: 1722 ft

Show me the last for .
Show Decoded

2018-10-19 02:56 METAR KJHW 190656Z AUTO 22008KT 10SM CLR 01/M02 A3028 RMK AO2 SLP272 T00111022
                 FZRANO =
2018-10-19 01:56 METAR KJHW 190556Z AUTO 22011KT 10SM CLR 01/M02 A3027 RMK AO2 SLP273 T00111017
                 10022 21006 56012 FZRANO =
2018-10-19 00:56 METAR KJHW 190456Z AUTO 22007KT 10SM CLR 01/M02 A3029 RMK AO2 SLP276 T00111017
                 400561006 FZRANO =
2018-10-18 23:56 METAR KJHW 190356Z AUTO 21007KT 10SM CLR 01/M01 A3030 RMK AO2 SLP281 T00061011
                 FZRANO =
2018-10-18 22:56 METAR KJHW 190256Z AUTO 20004KT 10SM CLR M01/M01 A3031 RMK AO2 SLP287 T10061011
                 58010 FZRANO =
2018-10-18 21:56 METAR KJHW 190156Z AUTO 20005KT 10SM CLR 00/M01 A3033 RMK AO2 SLP292 T00001011
                 FZRANO =
2018-10-18 20:56 METAR KJHW 190056Z AUTO 22004KT 10SM CLR 01/M01 A3033 RMK AO2 SLP295 T00111011
                 FZRANO =
2018-10-18 19:56 METAR KJHW 182356Z AUTO 26005KT 10SM CLR 03/M01 A3034 RMK AO2 SLP297 T00281011
                 10056 20017 56010 =
2018-10-18 18:56 METAR KJHW 182256Z AUTO 27003KT 10SM CLR 03/M01 A3035 RMK AO2 SLP299 T00281006 =
2018-10-18 17:56 METAR KJHW 182156Z AUTO 25008KT 10SM FEW030 04/M01 A3036 RMK AO2 SLP301
                 T00441011 =
2018-10-18 16:56 METAR KJHW 182056Z AUTO 26009G15KT 10SM OVC030 04/M02 A3037 RMK AO2 SLP306
                 T00441017 56013 =
2018-10-18 15:56 METAR KJHW 181956Z AUTO 29009KT 10SM OVC032 04/M02 A3039 RMK AO2 SLP310
                 T00441022 =
2018-10-18 14:56 METAR KJHW 181856Z AUTO 27008KT 10SM OVC032 04/M03 A3040 RMK AO2 SLP313
                 T00441028 =
2018-10-18 14:08 METAR KJHW 181808Z AUTO 29008KT 10SM BKN031 OVC037 04/M03 A3041 RMK AO2 =
2018-10-18 13:56 METAR KJHW 181756Z AUTO 32010KT 10SM OVC029 03/M02 A3041 RMK AO2 SLP320
                 T00331022 10033 20006 58004 =
2018-10-18 13:15 METAR KJHW 181715Z AUTO 30009KT 10SM OVC028 03/M03 A3043 RMK AO2 =
2018-10-18 12:56 METAR KJHW 181656Z AUTO 29008KT 10SM OVC030 03/M03 A3044 RMK AO2 SLP327
                 T00281028 =
2018-10-18 11:56 METAR KJHW 181556Z AUTO 30012KT 10SM OVC034 03/M03 A3043 RMK AO2 SLP323
                 T00331033 =
2018-10-18 10:56 METAR KJHW 181456Z AUTO 34008KT 10SM SCT028 OVC035 02/M04 A3043 RMK AO2 SLP324
                 T00221039 51008 FZRANO =
2018-10-18 10:29 METAR KJHW 181429Z AUTO 32009KT 10SM OVC028 02/M03 A3042 RMK AO2 FZRANO =
2018-10-18 09:35 METAR KJHW 181335Z AUTO 34006KT 10SM OVC029 01/M03 A3041 RMK AO2 FZRANO =
2018-10-18 09:05 METAR KJHW 181305Z AUTO 34008KT 10SM OVC031 01/M03 A3040 RMK AO2 FZRANO =
2018-10-18 08:56 METAR KJHW 181256Z AUTO 36005KT 10SM OVC029 01/M03 A3040 RMK AO2 SLP316
                 T00111028 FZRANO =
2018-10-18 08:29 METAR KJHW 181229Z AUTO 34007KT 10SM BKN029 OVC036 01/M03 A3040 RMK AO2 FZRANO =
2018-10-18 07:56 METAR KJHW 181156Z AUTO 32006KT 10SM OVC038 01/M04 A3038 RMK AO2 SLP308 60000
                 7//// T00061039 10011 20006 51017 FZRANO =
2018-10-18 06:56 METAR KJHW 181056Z AUTO 32007KT 10SM OVC037 01/M04 A3037 RMK AO2 SLP304
                 T00111039 FZRANO =
2018-10-18 05:56 METAR KJHW 180956Z AUTO 31011KT 10SM OVC040 01/M04 A3034 RMK AO2 SLP296
                 T00061044 FZRANO =
2018-10-18 04:56 METAR KJHW 180856Z AUTO 32010G17KT 10SM FEW030 OVC042 01/M03 A3033 RMK AO2
                 SLP289 60000 T00061033 53010 FZRANO =
2018-10-18 03:56 METAR KJHW 180756Z AUTO 32010KT 10SM BKN035 OVC046 01/M03 A3031 RMK AO2 SLP285
                 T00111033 FZRANO =

Support USWX by starting your Amazon purchase here.